createdAt,value
2018-05-09T00:02:04.923Z,16.40
2018-05-09T00:04:32.428Z,16.40
2018-05-09T00:06:59.914Z,16.40
2018-05-09T00:09:27.416Z,16.30
2018-05-09T00:11:55.031Z,16.30
2018-05-09T00:14:22.528Z,16.30
2018-05-09T00:16:50.032Z,16.20
2018-05-09T00:19:17.554Z,16.20
2018-05-09T00:21:45.956Z,16.10
2018-05-09T00:24:13.463Z,16.10
2018-05-09T00:26:40.963Z,16.10
2018-05-09T00:29:08.488Z,16.00
2018-05-09T00:31:35.990Z,16.00
2018-05-09T00:34:03.486Z,15.90
2018-05-09T00:36:30.988Z,15.90
2018-05-09T00:38:59.265Z,15.90
2018-05-09T00:41:27.569Z,15.90
2018-05-09T00:43:55.073Z,15.90
2018-05-09T00:46:22.603Z,16.00
2018-05-09T00:48:50.101Z,15.90
2018-05-09T00:51:17.592Z,16.00
2018-05-09T00:53:45.091Z,16.00
2018-05-09T00:56:12.587Z,15.90
2018-05-09T00:58:40.869Z,15.90
2018-05-09T01:01:09.140Z,15.90
2018-05-09T01:03:37.417Z,15.80
2018-05-09T01:06:05.682Z,15.80
2018-05-09T01:08:33.188Z,15.80
2018-05-09T01:11:00.689Z,15.70
2018-05-09T01:13:28.198Z,15.70
2018-05-09T01:15:55.699Z,15.60
2018-05-09T01:18:23.206Z,15.60
2018-05-09T01:20:50.727Z,15.50
2018-05-09T01:23:18.224Z,15.60
2018-05-09T01:25:45.760Z,15.50
2018-05-09T01:28:14.031Z,15.50
2018-05-09T01:30:42.352Z,15.50
2018-05-09T01:33:09.880Z,15.50
2018-05-09T01:35:38.141Z,15.50
2018-05-09T01:38:06.539Z,15.50
2018-05-09T01:40:34.102Z,15.50
2018-05-09T01:43:01.602Z,15.50
2018-05-09T01:45:29.100Z,15.50
2018-05-09T01:47:57.396Z,15.50
2018-05-09T01:50:24.915Z,15.50
2018-05-09T01:52:52.402Z,15.50
2018-05-09T01:55:19.970Z,15.40
2018-05-09T01:57:47.480Z,15.40
2018-05-09T02:00:14.992Z,15.30
2018-05-09T02:02:42.542Z,15.40
2018-05-09T02:05:10.104Z,15.30
2018-05-09T02:07:38.366Z,15.20
2018-05-09T02:10:06.626Z,15.20
2018-05-09T02:12:34.128Z,15.20
2018-05-09T02:15:01.631Z,15.20
2018-05-09T02:17:29.149Z,15.20
2018-05-09T02:19:56.644Z,15.20
2018-05-09T02:22:24.147Z,15.30
2018-05-09T02:24:51.638Z,15.30
2018-05-09T02:27:19.137Z,15.30
2018-05-09T02:29:47.403Z,15.30
2018-05-09T02:32:15.008Z,15.30
2018-05-09T02:34:42.508Z,15.30
2018-05-09T02:37:10.109Z,15.30
2018-05-09T02:39:38.408Z,15.30
2018-05-09T02:42:05.927Z,15.20
2018-05-09T02:44:34.192Z,15.20
2018-05-09T02:47:01.698Z,15.20
2018-05-09T02:49:29.191Z,15.20
2018-05-09T02:51:56.696Z,15.10
2018-05-09T02:54:24.203Z,15.00
2018-05-09T02:56:51.704Z,15.00
2018-05-09T02:59:19.975Z,15.00
2018-05-09T03:01:59.946Z,15.00
2018-05-09T03:04:28.571Z,15.00
2018-05-09T03:06:56.076Z,15.00
2018-05-09T03:09:24.344Z,15.00
2018-05-09T03:11:52.611Z,15.00
2018-05-09T03:14:21.020Z,14.90
2018-05-09T03:16:48.519Z,14.90
2018-05-09T03:19:16.027Z,14.90
2018-05-09T03:21:43.553Z,14.90
2018-05-09T03:24:11.066Z,14.90
2018-05-09T03:26:38.555Z,14.90
2018-05-09T03:29:06.051Z,14.90
2018-05-09T03:31:34.310Z,14.90
2018-05-09T03:34:01.831Z,14.80
2018-05-09T03:36:29.332Z,14.80
2018-05-09T03:38:57.586Z,14.80
2018-05-09T03:41:25.088Z,14.80
2018-05-09T03:43:52.594Z,14.80
2018-05-09T03:46:20.099Z,14.70
2018-05-09T03:48:48.358Z,14.70
2018-05-09T03:51:16.650Z,14.70
2018-05-09T03:53:44.907Z,14.70
2018-05-09T03:56:13.195Z,14.70
2018-05-09T03:58:41.468Z,14.70
2018-05-09T04:01:09.767Z,14.80
2018-05-09T04:06:50.476Z,14.80
2018-05-09T04:09:29.938Z,14.90
2018-05-09T04:11:57.391Z,15.00
2018-05-09T04:14:24.911Z,15.00
2018-05-09T04:16:52.464Z,15.10
2018-05-09T04:19:19.963Z,15.10
2018-05-09T04:21:47.473Z,15.20
2018-05-09T04:24:15.003Z,15.40
2018-05-09T04:26:42.499Z,15.90
2018-05-09T04:29:09.994Z,16.60
2018-05-09T04:31:37.540Z,17.40
2018-05-09T04:34:05.040Z,18.10
2018-05-09T04:36:32.527Z,18.70
2018-05-09T04:39:00.100Z,19.30
2018-05-09T04:41:28.531Z,19.80
2018-05-09T04:43:56.068Z,20.30
2018-05-09T04:46:23.567Z,20.60
2018-05-09T04:48:51.842Z,21.10
2018-05-09T04:51:19.415Z,21.10
2018-05-09T04:53:46.907Z,21.40
2018-05-09T04:56:14.413Z,21.70
2018-05-09T04:58:42.822Z,22.10
2018-05-09T05:01:10.334Z,22.10
2018-05-09T05:03:37.838Z,22.40
2018-05-09T05:06:05.347Z,22.70
2018-05-09T05:08:32.850Z,23.00
2018-05-09T05:11:00.352Z,23.30
2018-05-09T05:13:27.869Z,23.70
2018-05-09T05:15:55.387Z,24.00
2018-05-09T05:18:22.907Z,24.30
2018-05-09T05:20:50.411Z,24.60
2018-05-09T05:23:18.691Z,25.20
2018-05-09T05:25:46.973Z,25.60
2018-05-09T05:28:15.231Z,26.00
2018-05-09T05:30:42.815Z,25.90
2018-05-09T05:33:10.342Z,26.20
2018-05-09T05:35:37.856Z,26.40
2018-05-09T05:38:05.383Z,26.60
2018-05-09T05:40:33.637Z,26.50
2018-05-09T05:43:01.152Z,26.40
2018-05-09T05:45:28.750Z,26.10
2018-05-09T05:47:56.952Z,25.40
2018-05-09T05:50:25.229Z,24.90
2018-05-09T05:52:52.746Z,24.90
2018-05-09T05:55:20.359Z,24.50
2018-05-09T05:57:47.923Z,24.00
2018-05-09T06:00:15.427Z,23.60
2018-05-09T06:02:42.954Z,23.10
2018-05-09T06:05:10.447Z,22.80
2018-05-09T06:07:37.954Z,22.70
2018-05-09T06:10:05.531Z,22.60
2018-05-09T06:12:33.875Z,22.20
2018-05-09T06:15:02.152Z,21.90
2018-05-09T06:17:30.427Z,21.80
2018-05-09T06:19:58.695Z,21.70
2018-05-09T06:22:26.982Z,21.60
2018-05-09T06:24:54.513Z,21.60
2018-05-09T06:27:22.773Z,21.50
2018-05-09T06:29:50.275Z,21.50
2018-05-09T06:32:18.538Z,21.50
2018-05-09T06:34:47.684Z,21.30
2018-05-09T06:37:15.193Z,21.30
2018-05-09T06:39:43.465Z,21.20
2018-05-09T06:42:10.970Z,21.20
2018-05-09T06:44:38.472Z,21.20
2018-05-09T06:47:05.991Z,21.20
2018-05-09T06:49:33.513Z,21.20
2018-05-09T06:52:01.820Z,21.30
2018-05-09T06:54:29.331Z,21.20
2018-05-09T06:56:56.835Z,21.30
2018-05-09T06:59:24.343Z,21.40
2018-05-09T07:01:51.947Z,21.60
2018-05-09T07:04:19.464Z,21.60
2018-05-09T07:06:47.978Z,21.90
2018-05-09T07:09:16.024Z,22.00
2018-05-09T07:11:44.290Z,22.00
2018-05-09T07:14:11.866Z,22.00
2018-05-09T07:16:40.138Z,22.10
2018-05-09T07:19:08.412Z,22.10
2018-05-09T07:21:36.674Z,22.10
2018-05-09T07:24:04.209Z,22.10
2018-05-09T07:26:31.716Z,22.10
2018-05-09T07:28:59.216Z,22.20
2018-05-09T07:31:26.719Z,22.20
2018-05-09T07:33:55.026Z,22.30
2018-05-09T07:36:22.535Z,22.30
2018-05-09T07:38:51.544Z,22.40
2018-05-09T07:41:19.840Z,22.50
2018-05-09T07:43:47.338Z,22.50
2018-05-09T07:46:14.848Z,22.50
2018-05-09T07:48:43.143Z,22.60
2018-05-09T07:51:10.704Z,22.60
2018-05-09T07:53:38.976Z,22.60
2018-05-09T07:56:06.492Z,22.60
2018-05-09T07:58:34.112Z,22.70
2018-05-09T08:01:01.640Z,22.70
2018-05-09T08:03:29.907Z,22.60
2018-05-09T08:05:58.186Z,22.70
2018-05-09T08:08:25.723Z,22.70
2018-05-09T08:10:53.234Z,22.80
2018-05-09T08:13:20.771Z,22.90
2018-05-09T08:15:49.035Z,23.00
2018-05-09T08:18:16.564Z,23.00
2018-05-09T08:20:44.066Z,23.00
2018-05-09T08:23:12.331Z,23.00
2018-05-09T08:25:40.612Z,23.00
2018-05-09T08:28:08.878Z,23.00
2018-05-09T08:30:37.164Z,22.90
2018-05-09T08:33:05.430Z,22.90
2018-05-09T08:35:33.715Z,23.00
2018-05-09T08:38:01.996Z,23.20
2018-05-09T08:40:29.510Z,23.10
2018-05-09T08:42:57.013Z,23.30
2018-05-09T08:45:24.515Z,23.30
2018-05-09T08:47:52.031Z,23.40
2018-05-09T08:50:19.538Z,23.50
2018-05-09T08:52:47.090Z,23.40
2018-05-09T08:55:14.602Z,23.40
2018-05-09T08:57:42.872Z,23.50
2018-05-09T09:00:11.138Z,23.50
2018-05-09T09:02:39.426Z,23.60
2018-05-09T09:05:07.706Z,23.70
2018-05-09T09:07:35.227Z,23.70
2018-05-09T09:10:02.758Z,23.90
2018-05-09T09:12:30.262Z,23.90
2018-05-09T09:14:58.544Z,23.90
2018-05-09T09:17:26.819Z,24.00
2018-05-09T09:19:55.101Z,24.00
2018-05-09T09:22:23.411Z,24.00
2018-05-09T09:24:50.903Z,24.00
2018-05-09T09:27:18.399Z,24.10
2018-05-09T09:29:46.678Z,24.10
2018-05-09T09:32:14.175Z,24.10
2018-05-09T09:34:41.684Z,24.20
2018-05-09T09:37:09.944Z,24.40
2018-05-09T09:39:38.219Z,24.50
2018-05-09T09:42:06.491Z,24.60
2018-05-09T09:44:34.016Z,24.50
2018-05-09T09:47:01.509Z,24.60
2018-05-09T09:49:29.006Z,24.70
2018-05-09T09:51:56.506Z,24.80
2018-05-09T09:54:24.000Z,24.80
2018-05-09T09:56:52.267Z,24.80
2018-05-09T09:59:19.844Z,24.80
2018-05-09T10:01:47.368Z,24.90
2018-05-09T10:04:14.890Z,24.90
2018-05-09T10:06:42.393Z,24.90
2018-05-09T10:09:10.660Z,25.00
2018-05-09T10:11:38.186Z,25.00
2018-05-09T10:14:05.721Z,25.00
2018-05-09T10:16:33.233Z,25.00
2018-05-09T10:19:01.510Z,25.00
2018-05-09T10:21:29.013Z,24.90
2018-05-09T10:23:56.527Z,25.00
2018-05-09T10:26:24.335Z,25.10
2018-05-09T10:28:51.848Z,25.10
2018-05-09T10:31:19.379Z,25.10
2018-05-09T10:33:46.862Z,25.30
2018-05-09T10:36:14.363Z,25.30
2018-05-09T10:38:42.622Z,25.40
2018-05-09T10:41:10.907Z,25.50
2018-05-09T10:43:39.181Z,25.50
2018-05-09T10:46:07.479Z,25.60
2018-05-09T10:48:34.982Z,25.60
2018-05-09T10:51:02.496Z,25.70
2018-05-09T10:53:30.000Z,25.80
2018-05-09T10:55:57.508Z,25.90
2018-05-09T10:58:25.004Z,26.00
2018-05-09T11:00:52.519Z,26.00
2018-05-09T11:03:20.023Z,26.00
2018-05-09T11:05:47.520Z,26.00
2018-05-09T11:08:15.786Z,25.90
2018-05-09T11:10:43.273Z,25.90
2018-05-09T11:13:10.778Z,26.00
2018-05-09T11:15:38.399Z,26.00
2018-05-09T11:18:05.920Z,26.10
2018-05-09T11:20:33.427Z,26.20
2018-05-09T11:23:00.932Z,26.20
2018-05-09T11:25:28.903Z,26.40
2018-05-09T11:27:57.173Z,26.40
2018-05-09T11:30:24.724Z,26.40
2018-05-09T11:32:52.226Z,26.40
2018-05-09T11:35:19.746Z,26.50
2018-05-09T11:37:47.243Z,26.50
2018-05-09T11:40:14.765Z,26.50
2018-05-09T11:42:42.278Z,26.60
2018-05-09T11:45:09.786Z,26.60
2018-05-09T11:47:37.335Z,26.50
2018-05-09T11:50:04.848Z,26.50
2018-05-09T11:52:32.355Z,26.50
2018-05-09T11:54:59.902Z,26.50
2018-05-09T11:57:27.465Z,26.60
2018-05-09T11:59:54.959Z,26.50
2018-05-09T12:02:23.229Z,26.40
2018-05-09T12:04:51.491Z,26.50
2018-05-09T12:07:18.978Z,26.50
2018-05-09T12:09:46.489Z,26.50
2018-05-09T12:12:13.991Z,26.50
2018-05-09T12:14:41.491Z,26.60
2018-05-09T12:17:09.001Z,26.60
2018-05-09T12:19:37.271Z,26.80
2018-05-09T12:22:05.533Z,26.80
2018-05-09T12:24:33.949Z,26.90
2018-05-09T12:27:01.464Z,26.80
2018-05-09T12:29:29.724Z,27.00
2018-05-09T12:31:57.243Z,27.00
2018-05-09T12:34:24.755Z,27.10
2018-05-09T12:36:53.050Z,27.10
2018-05-09T12:39:21.307Z,27.10
2018-05-09T12:41:48.817Z,27.10
2018-05-09T12:44:16.325Z,27.10
2018-05-09T12:46:43.830Z,27.10
2018-05-09T12:49:11.341Z,27.10
2018-05-09T12:51:40.376Z,27.00
2018-05-09T12:54:07.954Z,27.00
2018-05-09T12:56:35.494Z,27.00
2018-05-09T12:59:02.993Z,27.00
2018-05-09T13:01:30.488Z,27.10
2018-05-09T13:03:58.041Z,27.20
2018-05-09T13:06:26.307Z,27.00
2018-05-09T13:08:54.605Z,26.90
2018-05-09T13:11:22.114Z,26.90
2018-05-09T13:13:49.617Z,27.00
2018-05-09T13:16:17.137Z,27.10
2018-05-09T13:18:44.635Z,27.10
2018-05-09T13:21:12.900Z,27.30
2018-05-09T13:23:40.414Z,27.30
2018-05-09T13:26:07.920Z,27.40
2018-05-09T13:28:36.201Z,27.40
2018-05-09T13:31:04.501Z,27.30
2018-05-09T13:33:32.014Z,27.30
2018-05-09T13:35:59.600Z,27.20
2018-05-09T13:38:27.108Z,27.20
2018-05-09T13:40:54.608Z,27.30
2018-05-09T13:43:22.883Z,27.30
2018-05-09T13:45:51.154Z,27.50
2018-05-09T13:48:19.458Z,27.50
2018-05-09T13:50:46.943Z,27.40
2018-05-09T13:53:14.450Z,27.50
2018-05-09T13:55:42.749Z,27.10
2018-05-09T13:58:10.321Z,27.10
2018-05-09T14:00:37.823Z,27.00
2018-05-09T14:03:05.333Z,26.90
2018-05-09T14:05:32.831Z,26.80
2018-05-09T14:08:00.350Z,26.80
2018-05-09T14:10:27.844Z,26.80
2018-05-09T14:12:55.367Z,26.90
2018-05-09T14:15:22.879Z,26.80
2018-05-09T14:17:51.167Z,26.90
2018-05-09T14:20:19.447Z,26.90
2018-05-09T14:22:47.709Z,26.90
2018-05-09T14:25:15.285Z,26.80
2018-05-09T14:27:42.753Z,26.80
2018-05-09T14:30:10.276Z,26.80
2018-05-09T14:32:37.878Z,26.80
2018-05-09T14:35:05.384Z,26.90
2018-05-09T14:37:32.885Z,26.90
2018-05-09T14:40:00.397Z,26.90
2018-05-09T14:42:27.912Z,26.90
2018-05-09T14:44:55.466Z,26.90
2018-05-09T14:47:22.959Z,26.90
2018-05-09T14:49:50.597Z,26.90
2018-05-09T14:52:18.109Z,26.90
2018-05-09T14:54:46.139Z,26.90
2018-05-09T14:57:13.651Z,26.90
2018-05-09T14:59:41.904Z,27.00
2018-05-09T15:02:09.406Z,27.00
2018-05-09T15:04:36.897Z,26.90
2018-05-09T15:07:04.392Z,26.90
2018-05-09T15:09:31.907Z,26.90
2018-05-09T15:11:59.455Z,26.80
2018-05-09T15:14:26.974Z,26.90
2018-05-09T15:16:55.231Z,26.90
2018-05-09T15:19:22.740Z,26.80
2018-05-09T15:21:50.277Z,26.80
2018-05-09T15:24:18.562Z,26.60
2018-05-09T15:26:46.844Z,26.50
2018-05-09T15:29:14.331Z,26.40
2018-05-09T15:31:41.840Z,26.50
2018-05-09T15:34:10.103Z,26.40
2018-05-09T15:36:37.611Z,26.40
2018-05-09T15:39:05.184Z,26.30
2018-05-09T15:41:32.703Z,26.20
2018-05-09T15:44:00.967Z,26.10
2018-05-09T15:46:29.229Z,26.10
2018-05-09T15:48:56.739Z,26.10
2018-05-09T15:51:24.249Z,26.10
2018-05-09T15:53:52.507Z,26.00
2018-05-09T15:56:20.010Z,25.90
2018-05-09T15:58:47.539Z,25.90
2018-05-09T16:01:15.058Z,25.90
2018-05-09T16:03:42.569Z,25.90
2018-05-09T16:06:10.855Z,25.90
2018-05-09T16:08:38.525Z,25.90
2018-05-09T16:11:06.027Z,25.90
2018-05-09T16:13:33.530Z,25.90
2018-05-09T16:16:01.791Z,25.90
2018-05-09T16:18:30.066Z,25.80
2018-05-09T16:20:58.322Z,25.80
2018-05-09T16:23:25.841Z,25.80
2018-05-09T16:25:53.348Z,25.80
2018-05-09T16:28:20.866Z,25.70
2018-05-09T16:30:48.384Z,25.70
2018-05-09T16:33:16.665Z,25.70
2018-05-09T16:35:44.932Z,25.70
2018-05-09T16:38:13.208Z,25.70
2018-05-09T16:40:41.474Z,25.60
2018-05-09T16:43:10.486Z,25.60
2018-05-09T16:45:38.763Z,25.50
2018-05-09T16:48:07.019Z,25.50
2018-05-09T16:50:34.719Z,25.50
2018-05-09T16:53:02.231Z,25.50
2018-05-09T16:55:29.827Z,25.40
2018-05-09T16:57:57.324Z,25.40
2018-05-09T17:00:24.843Z,25.30
2018-05-09T17:02:52.343Z,25.30
2018-05-09T17:05:19.834Z,25.20
2018-05-09T17:07:47.338Z,25.20
2018-05-09T17:10:14.872Z,25.20
2018-05-09T17:12:42.366Z,25.20
2018-05-09T17:15:09.878Z,25.20
2018-05-09T17:17:38.134Z,25.30
2018-05-09T17:20:05.640Z,25.30
2018-05-09T17:22:34.074Z,25.30
2018-05-09T17:25:01.682Z,25.30
2018-05-09T17:27:29.193Z,25.30
2018-05-09T17:29:56.711Z,25.30
2018-05-09T17:32:24.202Z,25.30
2018-05-09T17:34:51.703Z,25.20
2018-05-09T17:37:19.221Z,25.20
2018-05-09T17:39:46.819Z,25.10
2018-05-09T17:42:14.326Z,25.10
2018-05-09T17:44:41.822Z,25.10
2018-05-09T17:47:10.087Z,25.10
2018-05-09T17:49:38.391Z,25.10
2018-05-09T17:52:05.908Z,25.00
2018-05-09T17:54:33.411Z,25.00
2018-05-09T17:57:00.911Z,24.90
2018-05-09T17:59:28.418Z,24.90
2018-05-09T18:01:55.931Z,24.80
2018-05-09T18:04:23.447Z,24.70
2018-05-09T18:06:50.943Z,24.70
2018-05-09T18:09:18.451Z,24.60
2018-05-09T18:11:45.949Z,24.60
2018-05-09T18:14:13.458Z,24.60
2018-05-09T18:16:42.109Z,24.50
2018-05-09T18:19:09.600Z,24.40
2018-05-09T18:21:37.868Z,24.30
2018-05-09T18:24:06.131Z,24.30
2018-05-09T18:26:33.717Z,24.30
2018-05-09T18:29:01.227Z,24.20
2018-05-09T18:31:28.738Z,24.20
2018-05-09T18:33:56.300Z,24.10
2018-05-09T18:36:23.811Z,24.00
2018-05-09T18:38:51.323Z,23.90
2018-05-09T18:41:18.840Z,23.80
2018-05-09T18:43:46.344Z,23.80
2018-05-09T18:46:13.850Z,23.70
2018-05-09T18:48:42.167Z,23.50
2018-05-09T18:51:09.655Z,23.40
2018-05-09T18:53:37.154Z,23.40
2018-05-09T18:56:05.441Z,23.20
2018-05-09T18:58:33.734Z,23.10
2018-05-09T19:01:01.226Z,23.10
2018-05-09T19:03:28.730Z,23.00
2018-05-09T19:05:56.994Z,22.90
2018-05-09T19:08:24.492Z,22.90
2018-05-09T19:10:52.002Z,22.80
2018-05-09T19:13:19.507Z,22.70
2018-05-09T19:15:47.050Z,22.60
2018-05-09T19:18:15.316Z,22.50
2018-05-09T19:20:43.610Z,22.40
2018-05-09T19:23:11.168Z,22.40
2018-05-09T19:25:38.676Z,22.40
2018-05-09T19:28:06.174Z,22.30
2018-05-09T19:30:34.441Z,22.20
2018-05-09T19:33:02.706Z,22.20
2018-05-09T19:35:30.209Z,22.20
2018-05-09T19:37:57.719Z,22.20
2018-05-09T19:40:25.214Z,22.20
2018-05-09T19:42:53.483Z,22.20
2018-05-09T19:45:20.993Z,22.20
2018-05-09T19:47:48.516Z,22.20
2018-05-09T19:50:16.015Z,22.20
2018-05-09T19:52:43.512Z,22.10
2018-05-09T19:55:11.830Z,22.10
2018-05-09T19:57:39.351Z,22.10
2018-05-09T20:00:06.856Z,22.10
2018-05-09T20:02:34.347Z,22.10
2018-05-09T20:05:02.848Z,22.00
2018-05-09T20:07:30.347Z,22.00
2018-05-09T20:09:57.844Z,22.00
2018-05-09T20:12:26.126Z,22.00
2018-05-09T20:14:54.403Z,21.90
2018-05-09T20:17:22.682Z,21.90
2018-05-09T20:19:50.205Z,21.90
2018-05-09T20:22:17.803Z,21.80
2018-05-09T20:24:45.307Z,21.70
2018-05-09T20:27:12.806Z,21.70
2018-05-09T20:29:41.063Z,21.60
2018-05-09T20:32:20.459Z,21.60
2018-05-09T20:34:47.946Z,21.60
2018-05-09T20:37:15.461Z,21.60
2018-05-09T20:39:43.022Z,21.60
2018-05-09T20:42:10.590Z,21.60
2018-05-09T20:44:38.079Z,21.50
2018-05-09T20:47:05.579Z,21.50
2018-05-09T20:49:33.862Z,21.50
2018-05-09T20:52:02.148Z,21.40
2018-05-09T20:54:29.642Z,21.40
2018-05-09T20:56:57.176Z,21.40
2018-05-09T20:59:24.694Z,21.30
2018-05-09T21:01:52.981Z,21.30
2018-05-09T21:04:21.261Z,21.30
2018-05-09T21:06:49.535Z,21.30
2018-05-09T21:09:17.873Z,21.30
2018-05-09T21:11:58.058Z,21.30
2018-05-09T21:14:26.324Z,21.30
2018-05-09T21:16:53.845Z,21.30
2018-05-09T21:19:21.355Z,21.30
2018-05-09T21:21:49.636Z,21.30
2018-05-09T21:24:17.937Z,21.30
2018-05-09T21:26:45.436Z,21.30
2018-05-09T21:29:12.928Z,21.30
2018-05-09T21:31:41.244Z,21.20
2018-05-09T21:34:08.790Z,21.20
2018-05-09T21:36:36.305Z,21.20
2018-05-09T21:39:05.498Z,21.10
2018-05-09T21:41:33.016Z,21.10
2018-05-09T21:44:00.507Z,21.10
2018-05-09T21:46:28.007Z,21.00
2018-05-09T21:48:55.514Z,21.00
2018-05-09T21:51:23.039Z,21.00
2018-05-09T21:53:50.560Z,21.00
2018-05-09T21:56:18.819Z,20.90
2018-05-09T21:58:47.129Z,20.90
2018-05-09T22:01:15.585Z,20.90
2018-05-09T22:03:43.065Z,20.90
2018-05-09T22:06:10.632Z,20.90
2018-05-09T22:08:38.155Z,20.80
2018-05-09T22:11:05.659Z,20.80
2018-05-09T22:13:33.199Z,20.70
2018-05-09T22:16:01.476Z,20.60
2018-05-09T22:18:28.970Z,20.60
2018-05-09T22:20:56.467Z,20.60
2018-05-09T22:23:25.475Z,20.50
2018-05-09T22:25:53.738Z,20.50
2018-05-09T22:28:21.254Z,20.50
2018-05-09T22:30:48.747Z,20.50
2018-05-09T22:33:16.293Z,20.50
2018-05-09T22:35:43.904Z,20.50
2018-05-09T22:38:12.182Z,20.40
2018-05-09T22:40:39.696Z,20.40
2018-05-09T22:43:07.208Z,20.40
2018-05-09T22:45:34.732Z,20.30
2018-05-09T22:48:03.015Z,20.20
2018-05-09T22:50:31.287Z,20.20
2018-05-09T22:52:59.548Z,20.10
2018-05-09T22:55:27.059Z,20.10
2018-05-09T22:57:54.570Z,20.10
2018-05-09T23:00:22.085Z,20.00
2018-05-09T23:02:49.603Z,20.00
2018-05-09T23:05:17.122Z,20.00
2018-05-09T23:07:44.622Z,19.90
2018-05-09T23:10:12.170Z,19.80
2018-05-09T23:12:39.663Z,19.90
2018-05-09T23:15:07.175Z,19.80
2018-05-09T23:17:34.756Z,19.90
2018-05-09T23:20:03.020Z,19.80
2018-05-09T23:22:31.291Z,19.80
2018-05-09T23:24:58.787Z,19.80
2018-05-09T23:27:26.304Z,19.70
2018-05-09T23:29:53.816Z,19.70
2018-05-09T23:32:21.351Z,19.70
2018-05-09T23:34:48.861Z,19.60
2018-05-09T23:37:16.366Z,19.60
2018-05-09T23:39:43.918Z,19.60
2018-05-09T23:42:12.177Z,19.50
2018-05-09T23:44:40.436Z,19.50
2018-05-09T23:47:07.979Z,19.40
2018-05-09T23:49:35.486Z,19.50
2018-05-09T23:52:03.074Z,19.40
2018-05-09T23:54:30.579Z,19.40
2018-05-09T23:56:58.079Z,19.40
2018-05-09T23:59:25.570Z,19.30
